createdAt,value
2023-02-07T06:32:42.512Z,34.70
2023-02-07T06:35:09.687Z,41.60
2023-02-07T06:37:36.890Z,32.63
2023-02-07T06:40:04.903Z,41.15
2023-02-07T06:42:32.452Z,34.38
2023-02-07T06:44:59.571Z,50.25
2023-02-07T06:47:27.440Z,37.85
2023-02-07T06:49:54.460Z,47.00
2023-02-07T06:52:22.036Z,33.38
2023-02-07T06:54:49.191Z,42.20
2023-02-07T06:57:16.785Z,39.20
2023-02-07T06:59:44.025Z,51.65
2023-02-07T07:02:13.448Z,37.75
2023-02-07T07:04:41.738Z,42.53
2023-02-07T07:07:10.037Z,43.38
2023-02-07T07:09:37.961Z,53.55
2023-02-07T07:12:06.312Z,48.03
2023-02-07T07:14:34.068Z,45.08
2023-02-07T07:17:01.881Z,50.97
2023-02-07T07:19:29.555Z,31.23
2023-02-07T07:21:59.075Z,39.03
2023-02-07T07:24:27.263Z,31.60
2023-02-07T07:26:56.496Z,34.78
2023-02-07T07:29:23.882Z,34.17
2023-02-07T07:31:51.540Z,38.05
2023-02-07T07:34:19.101Z,36.33
2023-02-07T07:36:47.258Z,32.55
2023-02-07T07:39:17.214Z,40.80
2023-02-07T07:41:44.947Z,33.75
2023-02-07T07:44:12.598Z,32.13
2023-02-07T07:46:39.763Z,43.47
2023-02-07T07:49:07.449Z,29.67
2023-02-07T07:51:35.245Z,29.02
2023-02-07T07:54:03.016Z,30.75
2023-02-07T07:56:30.780Z,28.35
2023-02-07T07:59:00.314Z,33.85
2023-02-07T08:01:29.080Z,29.00
2023-02-07T08:03:56.856Z,25.33
2023-02-07T08:06:24.864Z,22.77
2023-02-07T08:08:53.565Z,17.88
2023-02-07T08:11:20.888Z,27.77
2023-02-07T08:13:49.006Z,22.95
2023-02-07T08:16:17.094Z,27.90
2023-02-07T08:18:44.293Z,28.15
2023-02-07T08:21:11.544Z,21.45
2023-02-07T08:23:40.207Z,22.48
2023-02-07T08:26:08.345Z,41.75
2023-02-07T08:28:35.729Z,31.25
2023-02-07T08:31:05.393Z,32.92
2023-02-07T08:33:33.222Z,28.42
2023-02-07T08:36:00.739Z,26.88
2023-02-07T08:38:28.516Z,23.40
2023-02-07T08:40:55.756Z,24.65
2023-02-07T08:43:22.957Z,22.60
2023-02-07T08:45:50.269Z,21.48
2023-02-07T08:48:17.984Z,20.20
2023-02-07T08:50:45.440Z,27.52
2023-02-07T08:53:12.767Z,22.08
2023-02-07T08:55:43.997Z,26.67
2023-02-07T08:58:12.180Z,21.63
2023-02-07T09:00:40.834Z,24.65
2023-02-07T09:03:09.657Z,24.63
2023-02-07T09:05:38.296Z,14.90
2023-02-07T09:08:07.023Z,14.77
2023-02-07T09:10:36.141Z,14.57
2023-02-07T09:13:04.793Z,18.77
2023-02-07T09:15:37.065Z,17.30
2023-02-07T09:18:10.170Z,17.40
2023-02-07T09:20:41.752Z,16.05
2023-02-07T09:23:22.582Z,20.70
2023-02-07T09:25:55.221Z,13.32
2023-02-07T09:28:23.439Z,13.95
2023-02-07T09:30:52.527Z,14.75
2023-02-07T09:33:23.951Z,16.27
2023-02-07T09:35:58.160Z,24.77
2023-02-07T09:38:26.962Z,15.90
2023-02-07T09:40:58.651Z,17.42
2023-02-07T09:43:40.647Z,24.55
2023-02-07T09:46:30.030Z,10.25
2023-02-07T09:49:10.076Z,16.75
2023-02-07T09:51:38.963Z,12.55
2023-02-07T09:54:41.108Z,18.98
2023-02-07T09:57:19.142Z,14.70
2023-02-07T09:59:54.881Z,15.15
2023-02-07T10:02:29.293Z,12.02
2023-02-07T10:05:06.070Z,13.20
2023-02-07T10:07:36.659Z,14.57
2023-02-07T10:10:04.693Z,13.55
2023-02-07T10:13:00.113Z,26.80
2023-02-07T10:15:43.512Z,12.82
2023-02-07T10:18:39.107Z,14.82
2023-02-07T10:21:33.723Z,20.23
2023-02-07T10:24:41.400Z,14.95
2023-02-07T10:27:16.110Z,14.05
2023-02-07T10:30:01.733Z,14.13
2023-02-07T10:32:36.388Z,16.25
2023-02-07T10:35:23.170Z,12.48
2023-02-07T10:38:38.448Z,18.63
2023-02-07T10:41:32.440Z,13.65
2023-02-07T10:44:03.869Z,11.77
2023-02-07T10:46:36.088Z,11.10
2023-02-07T10:49:04.501Z,13.60
2023-02-07T10:51:37.035Z,13.85
2023-02-07T10:54:11.230Z,12.50
2023-02-07T10:56:47.575Z,12.38
2023-02-07T10:59:45.917Z,14.40
2023-02-07T11:02:29.648Z,13.63
2023-02-07T11:05:21.683Z,13.43
2023-02-07T11:08:19.424Z,10.48
2023-02-07T11:10:49.311Z,15.30
2023-02-07T11:13:26.295Z,15.65
2023-02-07T11:16:00.631Z,16.63
2023-02-07T11:18:56.141Z,14.02
2023-02-07T11:21:39.043Z,15.82
2023-02-07T11:24:12.166Z,14.02
2023-02-07T11:26:56.779Z,18.50
2023-02-07T11:29:27.160Z,14.07
2023-02-07T11:31:58.054Z,15.65
2023-02-07T11:35:08.688Z,17.90
2023-02-07T11:37:39.574Z,11.93
2023-02-07T11:40:28.895Z,15.75
2023-02-07T11:43:16.026Z,12.57
2023-02-07T11:45:47.154Z,17.23
2023-02-07T11:48:41.157Z,13.25
2023-02-07T11:51:15.455Z,12.77
2023-02-07T11:54:07.848Z,16.20
2023-02-07T11:57:05.365Z,21.47
2023-02-07T11:59:35.172Z,14.32
2023-02-07T12:02:25.655Z,14.23
2023-02-07T12:04:56.888Z,17.90
2023-02-07T12:07:38.339Z,24.65
2023-02-07T12:10:14.255Z,22.52
2023-02-07T12:12:49.800Z,17.73
2023-02-07T12:15:28.063Z,22.98
2023-02-07T12:18:10.460Z,18.83
2023-02-07T12:20:57.031Z,19.38
2023-02-07T12:23:42.730Z,18.55
2023-02-07T12:26:32.271Z,19.52
2023-02-07T12:29:12.409Z,22.10
2023-02-07T12:32:20.028Z,19.90
2023-02-07T12:35:00.577Z,20.38
2023-02-07T12:37:47.351Z,19.48
2023-02-07T12:40:43.935Z,20.35
2023-02-07T12:43:33.281Z,13.15
2023-02-07T12:46:01.772Z,19.13
2023-02-07T12:48:29.445Z,20.38
2023-02-07T12:51:03.709Z,17.48
2023-02-07T12:53:55.367Z,18.33
2023-02-07T12:57:07.695Z,17.10
2023-02-07T12:59:45.986Z,18.08
2023-02-07T13:02:42.766Z,20.88
2023-02-07T13:05:30.522Z,19.67
2023-02-07T13:08:20.056Z,22.40
2023-02-07T13:11:02.619Z,19.23
2023-02-07T13:13:55.790Z,19.90
2023-02-07T13:16:45.015Z,24.90
2023-02-07T13:19:41.440Z,18.23
2023-02-07T13:22:29.713Z,17.50
2023-02-07T13:25:03.793Z,16.27
2023-02-07T13:27:34.461Z,20.88
2023-02-07T13:30:04.269Z,17.73
2023-02-07T13:32:33.736Z,19.60
2023-02-07T13:35:08.243Z,21.55
2023-02-07T13:38:01.331Z,16.77
2023-02-07T13:41:10.786Z,18.30
2023-02-07T13:44:09.428Z,15.82
2023-02-07T13:47:01.713Z,19.85
2023-02-07T13:49:38.230Z,15.73
2023-02-07T13:52:28.337Z,15.57
2023-02-07T13:55:11.328Z,14.52
2023-02-07T13:58:00.633Z,19.45
2023-02-07T14:00:36.345Z,16.42
2023-02-07T14:03:09.167Z,12.90
2023-02-07T14:08:25.100Z,20.30
2023-02-07T14:10:56.509Z,15.80
2023-02-07T14:13:28.137Z,22.15
2023-02-07T14:15:59.952Z,18.27
2023-02-07T14:18:41.171Z,21.17
2023-02-07T14:21:25.020Z,13.18
2023-02-07T14:23:57.952Z,17.15
2023-02-07T14:26:40.242Z,13.07
2023-02-07T14:29:27.615Z,23.98
2023-02-07T14:31:58.646Z,19.83
2023-02-07T14:34:52.773Z,14.80
2023-02-07T14:37:24.732Z,18.73
2023-02-07T14:40:05.612Z,14.77
2023-02-07T14:42:33.090Z,17.58
2023-02-07T14:45:00.621Z,22.30
2023-02-07T14:47:29.839Z,17.50
2023-02-07T14:50:00.408Z,15.80
2023-02-07T14:52:31.683Z,14.18
2023-02-07T14:55:17.061Z,14.90
2023-02-07T14:58:01.638Z,16.63
2023-02-07T15:00:45.094Z,15.60
2023-02-07T15:03:16.532Z,15.98
2023-02-07T15:06:04.525Z,14.40
2023-02-07T15:08:35.072Z,13.30
2023-02-07T15:11:08.341Z,9.05
2023-02-07T15:13:43.371Z,13.23
2023-02-07T15:16:21.252Z,11.10
2023-02-07T15:18:53.815Z,11.40
2023-02-07T15:21:31.219Z,15.40
2023-02-07T15:24:04.267Z,10.07
2023-02-07T15:26:32.818Z,12.32
2023-02-07T15:29:03.162Z,8.32
2023-02-07T15:31:31.261Z,13.13
2023-02-07T15:34:01.218Z,14.85
2023-02-07T15:36:33.049Z,13.25
2023-02-07T15:39:03.566Z,10.77
2023-02-07T15:41:31.379Z,11.05
2023-02-07T15:44:04.578Z,13.43
2023-02-07T15:47:07.653Z,10.13
2023-02-07T15:49:40.927Z,12.82
2023-02-07T15:52:32.011Z,12.65
2023-02-07T15:55:01.821Z,13.82
2023-02-07T15:57:36.888Z,9.90
2023-02-07T16:00:14.890Z,9.05
2023-02-07T16:02:48.154Z,8.65
2023-02-07T16:05:44.698Z,10.85
2023-02-07T16:08:32.283Z,9.30
2023-02-07T16:11:34.120Z,11.90
2023-02-07T16:14:20.029Z,13.23
2023-02-07T16:16:47.842Z,18.77
2023-02-07T16:19:16.960Z,16.75
2023-02-07T16:21:44.964Z,23.83
2023-02-07T16:24:20.847Z,17.02
2023-02-07T16:26:50.502Z,13.98
2023-02-07T16:29:20.552Z,9.30
2023-02-07T16:31:48.478Z,10.20
2023-02-07T16:34:17.547Z,9.43
2023-02-07T16:36:47.722Z,14.57
2023-02-07T16:39:16.511Z,12.00
2023-02-07T16:41:47.518Z,17.30
2023-02-07T16:44:22.847Z,14.35
2023-02-07T16:46:50.305Z,10.20
2023-02-07T16:49:22.849Z,14.90
2023-02-07T16:51:50.605Z,11.23
2023-02-07T16:54:18.100Z,23.65
2023-02-07T16:56:47.858Z,17.52
2023-02-07T16:59:18.573Z,17.38
